Murray City, OH (43144)

4:41 PM EST on February 25, 2017 (GMT -0500)
MAV153 | | Change Station

Elev 921 ft 39.49 °N, 82.04 °W | Updated 10 minutes ago

Overcast
Overcast
37.0 °F
Feels Like 31 °F
N
8.0
Wind Variable Wind from West

Today
High -- | Low -- °F
--% Chance of Precip.
Yesterday
High -- | Low -- °F
Precip. -- in
Pressure 29.88 in
Visibility 10.0 miles
Clouds Overcast 3700 ft
Windchill 31 °F
Dew Point 28 °F
Humidity 69%
Rainfall 0.57 in
Snow Depth Not available.
7:06 AM 6:16 PM
Waning Crescent, 1% visible
METAR KUNI 252110Z AUTO 25015G23KT 10SM OVC037 02/M04 A2988 RMK AO2 T00221040
Pressure 29.88 in
Visibility 10.0 miles
Clouds Overcast 3700 ft
Windchill 31 °F
Dew Point 28 °F
Humidity 69%
Rainfall 0.57 in
Snow Depth Not available.
7:06 AM 6:16 PM
Waning Crescent, 1% visible
METAR KUNI 252110Z AUTO 25015G23KT 10SM OVC037 02/M04 A2988 RMK AO2 T00221040

Get Your Daily Forecast Email!

Thanks for signing up!

Be on the lookout for a verification email in your inbox.

You'll start receiving the daily forecast at 8 AM.

×

10-Day Weather Forecast

Almanac

Astronomy

Feb. 25, 2017 Rise Set
Actual Time
Civil Twilight
Nautical Twilight
Astronomical Twilight
Moon
Length of Visible Light
Length of Day
Tomorrow will be .
, % of the Moon is Illuminated

Today's Extremes

State Highs State Lows

Community

WunderPhotos

Upload Photos

1,962,540 photos uploaded!

WunderBlog® & News

Nearby

Air Quality

  Air Quality AQ Index Pollutant
Not available.

Snow Depth

Station Depth Elevation

Earthquake Activity

City Distance Mag. Time & Date
Minimum magnitude displayed is 2.5.

Coastal Water Temperatures

Place Temperature

Stations

Nearby Weather Stations

Station Location Temp. Windchill Dew Point Humidity Wind Precip. Elev Updated Type
                   

Watches & Warnings

There are currently no watches in effect.